createdAt,value
2019-04-26T00:02:03.158Z,2.03
2019-04-26T00:04:34.031Z,2.00
2019-04-26T00:07:04.846Z,1.90
2019-04-26T00:09:38.386Z,1.70
2019-04-26T00:12:26.146Z,1.50
2019-04-26T00:15:18.767Z,1.63
2019-04-26T00:17:52.869Z,1.87
2019-04-26T00:20:23.299Z,1.60
2019-04-26T00:22:55.055Z,1.53
2019-04-26T00:25:25.478Z,1.80
2019-04-26T00:27:55.983Z,1.77
2019-04-26T00:30:26.441Z,1.70
2019-04-26T00:32:56.930Z,1.50
2019-04-26T00:35:27.573Z,1.70
2019-04-26T00:37:58.138Z,1.60
2019-04-26T00:40:28.669Z,1.60
2019-04-26T00:43:00.599Z,1.70
2019-04-26T00:45:34.031Z,1.40
2019-04-26T00:48:05.522Z,1.50
2019-04-26T00:50:37.182Z,1.27
2019-04-26T00:53:09.638Z,1.30
2019-04-26T00:55:40.448Z,1.47
2019-04-26T00:58:11.414Z,1.97
2019-04-26T01:00:43.041Z,1.80
2019-04-26T01:03:15.210Z,1.77
2019-04-26T01:05:45.627Z,2.00
2019-04-26T01:08:17.029Z,2.10
2019-04-26T01:10:47.915Z,2.27
2019-04-26T01:13:18.349Z,1.80
2019-04-26T01:15:48.880Z,2.60
2019-04-26T01:18:20.129Z,1.73
2019-04-26T01:20:53.730Z,2.00
2019-04-26T01:23:27.251Z,2.10
2019-04-26T01:26:07.641Z,1.87
2019-04-26T01:28:45.903Z,2.10
2019-04-26T01:31:18.493Z,2.90
2019-04-26T01:33:49.621Z,2.20
2019-04-26T01:36:20.547Z,2.10
2019-04-26T01:38:53.815Z,2.23
2019-04-26T01:41:33.949Z,2.67
2019-04-26T01:44:24.630Z,2.67
2019-04-26T01:46:56.335Z,2.40
2019-04-26T01:49:26.886Z,2.13
2019-04-26T01:52:03.679Z,1.90
2019-04-26T01:54:39.833Z,2.20
2019-04-26T01:57:10.464Z,2.03
2019-04-26T01:59:45.750Z,2.00
2019-04-26T02:02:23.770Z,1.93
2019-04-26T02:04:57.283Z,2.00
2019-04-26T02:07:41.049Z,2.07
2019-04-26T02:10:15.205Z,2.03
2019-04-26T02:12:48.401Z,2.07
2019-04-26T02:15:23.010Z,2.23
2019-04-26T02:17:56.695Z,1.87
2019-04-26T02:20:52.519Z,1.83
2019-04-26T02:23:37.175Z,2.50
2019-04-26T02:26:26.646Z,1.70
2019-04-26T02:28:57.263Z,1.80
2019-04-26T02:31:31.464Z,1.90
2019-04-26T02:34:04.237Z,1.80
2019-04-26T02:36:55.162Z,2.00
2019-04-26T02:39:19.448Z,1.90
2019-04-26T02:41:53.173Z,2.70
2019-04-26T02:44:29.077Z,2.23
2019-04-26T02:47:22.896Z,2.47
2019-04-26T02:49:57.111Z,2.40
2019-04-26T02:52:45.460Z,2.17
2019-04-26T02:55:36.959Z,2.93
2019-04-26T02:58:05.780Z,2.77
2019-04-26T03:00:37.743Z,2.77
2019-04-26T03:03:10.576Z,2.60
2019-04-26T03:05:43.575Z,2.50
2019-04-26T03:08:23.536Z,2.53
2019-04-26T03:11:11.188Z,2.30
2019-04-26T03:13:59.841Z,2.13
2019-04-26T03:16:49.314Z,2.07
2019-04-26T03:19:36.240Z,2.80
2019-04-26T03:22:34.901Z,2.43
2019-04-26T03:25:22.243Z,2.40
2019-04-26T03:28:10.074Z,2.37
2019-04-26T03:30:54.738Z,2.70
2019-04-26T03:33:53.104Z,3.20
2019-04-26T03:37:01.333Z,3.60
2019-04-26T03:39:46.203Z,2.87
2019-04-26T03:42:35.075Z,3.23
2019-04-26T03:45:29.320Z,3.30
2019-04-26T03:48:08.992Z,4.17
2019-04-26T03:50:47.318Z,3.57
2019-04-26T03:53:27.045Z,3.80
2019-04-26T03:56:39.832Z,4.03
2019-04-26T03:59:59.033Z,4.07
2019-04-26T04:02:58.567Z,3.90
2019-04-26T04:05:40.117Z,4.50
2019-04-26T04:08:14.051Z,4.90
2019-04-26T04:10:47.666Z,4.90
2019-04-26T04:13:39.022Z,4.37
2019-04-26T04:16:13.419Z,4.90
2019-04-26T04:18:47.629Z,4.97
2019-04-26T04:21:48.637Z,4.90
2019-04-26T04:24:29.723Z,4.77
2019-04-26T04:27:31.889Z,3.80
2019-04-26T04:30:33.852Z,4.40
2019-04-26T04:33:40.728Z,4.77
2019-04-26T04:36:26.594Z,4.93
2019-04-26T04:39:24.566Z,5.23
2019-04-26T04:42:25.597Z,4.80
2019-04-26T04:45:24.843Z,5.50
2019-04-26T04:48:27.019Z,5.10
2019-04-26T04:51:27.255Z,5.43
2019-04-26T04:54:19.421Z,5.17
2019-04-26T04:57:25.337Z,5.23
2019-04-26T05:00:45.736Z,4.47
2019-04-26T05:03:39.208Z,4.50
2019-04-26T05:06:47.767Z,4.83
2019-04-26T05:09:31.767Z,6.47
2019-04-26T05:12:20.117Z,5.67
2019-04-26T05:15:10.717Z,6.50
2019-04-26T05:18:11.120Z,6.10
2019-04-26T05:20:53.338Z,6.13
2019-04-26T05:23:55.186Z,6.37
2019-04-26T05:27:29.642Z,5.77
2019-04-26T05:31:15.322Z,6.60
2019-04-26T05:34:22.216Z,7.20
2019-04-26T05:37:33.497Z,6.00
2019-04-26T05:40:26.351Z,6.30
2019-04-26T05:43:39.281Z,17.10
2019-04-26T05:47:06.843Z,16.73
2019-04-26T05:50:37.276Z,14.67
2019-04-26T05:53:48.710Z,7.40
2019-04-26T05:56:42.745Z,6.20
2019-04-26T05:59:30.173Z,5.27
2019-04-26T06:02:59.682Z,5.97
2019-04-26T06:06:17.716Z,5.10
2019-04-26T06:09:48.060Z,4.50
2019-04-26T06:12:54.739Z,4.50
2019-04-26T06:15:52.775Z,3.63
2019-04-26T06:18:55.227Z,4.43
2019-04-26T06:22:00.044Z,3.73
2019-04-26T06:24:52.671Z,3.63
2019-04-26T06:27:56.258Z,3.83
2019-04-26T06:30:48.889Z,3.73
2019-04-26T06:33:35.122Z,3.20
2019-04-26T06:36:13.846Z,3.20
2019-04-26T06:39:12.231Z,3.93
2019-04-26T06:42:29.858Z,3.30
2019-04-26T06:45:28.956Z,3.70
2019-04-26T06:48:08.905Z,3.77
2019-04-26T06:50:46.704Z,3.17
2019-04-26T06:53:52.562Z,3.47
2019-04-26T06:57:26.629Z,3.63
2019-04-26T07:00:23.434Z,3.40
2019-04-26T07:03:24.268Z,2.70
2019-04-26T07:06:00.284Z,3.40
2019-04-26T07:08:43.042Z,2.57
2019-04-26T07:11:36.458Z,2.63
2019-04-26T07:14:20.862Z,2.63
2019-04-26T07:17:07.943Z,2.87
2019-04-26T07:20:29.817Z,2.37
2019-04-26T07:24:03.867Z,2.20
2019-04-26T07:27:05.588Z,2.40
2019-04-26T07:30:12.575Z,1.80
2019-04-26T07:33:22.690Z,1.87
2019-04-26T07:36:24.804Z,1.90
2019-04-26T07:39:23.394Z,1.97
2019-04-26T07:42:59.242Z,2.10
2019-04-26T07:45:54.506Z,1.77
2019-04-26T07:48:56.838Z,2.10
2019-04-26T07:52:06.323Z,2.20
2019-04-26T07:55:16.129Z,2.43
2019-04-26T07:58:09.291Z,2.00
2019-04-26T08:00:52.211Z,1.90
2019-04-26T08:03:39.286Z,1.90
2019-04-26T08:06:20.558Z,2.10
2019-04-26T08:08:59.946Z,1.60
2019-04-26T08:11:36.743Z,1.43
2019-04-26T08:14:39.562Z,1.30
2019-04-26T08:17:31.953Z,1.30
2019-04-26T08:20:16.641Z,1.07
2019-04-26T08:22:52.236Z,1.02
2019-04-26T08:25:25.247Z,1.00
2019-04-26T08:27:58.669Z,0.98
2019-04-26T08:30:31.861Z,1.32
2019-04-26T08:33:07.501Z,1.12
2019-04-26T08:35:38.698Z,0.98
2019-04-26T08:38:15.945Z,1.10
2019-04-26T08:40:43.420Z,1.00
2019-04-26T08:43:30.783Z,1.20
2019-04-26T08:46:28.315Z,0.95
2019-04-26T08:49:06.461Z,1.10
2019-04-26T08:51:38.478Z,0.90
2019-04-26T08:54:32.528Z,1.07
2019-04-26T08:57:11.849Z,1.10
2019-04-26T08:59:49.207Z,1.33
2019-04-26T09:02:54.279Z,1.13
2019-04-26T09:05:49.863Z,1.03
2019-04-26T09:08:21.467Z,1.10
2019-04-26T09:10:54.803Z,1.23
2019-04-26T09:13:29.142Z,1.10
2019-04-26T09:16:28.026Z,0.97
2019-04-26T09:18:59.679Z,0.80
2019-04-26T09:21:38.994Z,1.02
2019-04-26T09:24:25.118Z,1.30
2019-04-26T09:27:01.408Z,1.00
2019-04-26T09:29:39.209Z,1.07
2019-04-26T09:32:15.985Z,0.85
2019-04-26T09:34:47.011Z,1.20
2019-04-26T09:37:17.864Z,1.02
2019-04-26T09:39:48.487Z,0.67
2019-04-26T09:42:29.365Z,0.60
2019-04-26T09:45:07.473Z,0.80
2019-04-26T09:47:43.942Z,0.80
2019-04-26T09:50:39.562Z,1.00
2019-04-26T09:53:10.110Z,0.70
2019-04-26T09:55:40.582Z,0.80
2019-04-26T09:58:11.043Z,0.70
2019-04-26T10:00:44.096Z,0.68
2019-04-26T10:03:14.765Z,0.60
2019-04-26T10:05:45.195Z,0.72
2019-04-26T10:08:15.671Z,0.60
2019-04-26T10:10:46.251Z,0.70
2019-04-26T10:13:44.737Z,0.68
2019-04-26T10:16:33.581Z,0.95
2019-04-26T10:19:12.010Z,0.82
2019-04-26T10:21:42.621Z,1.00
2019-04-26T10:24:13.072Z,1.32
2019-04-26T10:26:43.486Z,1.52
2019-04-26T10:29:13.923Z,1.20
2019-04-26T10:31:47.539Z,0.90
2019-04-26T10:34:16.435Z,0.90
2019-04-26T10:36:46.841Z,0.90
2019-04-26T10:39:19.263Z,0.80
2019-04-26T10:41:50.822Z,0.82
2019-04-26T10:44:22.532Z,1.22
2019-04-26T10:46:55.749Z,1.10
2019-04-26T10:49:48.851Z,0.80
2019-04-26T10:52:42.349Z,1.00
2019-04-26T10:55:35.000Z,1.70
2019-04-26T10:58:15.052Z,0.93
2019-04-26T11:00:48.477Z,0.90
2019-04-26T11:03:18.671Z,1.00
2019-04-26T11:05:53.491Z,1.15
2019-04-26T11:08:21.658Z,1.20
2019-04-26T11:10:52.422Z,1.30
2019-04-26T11:13:22.834Z,1.22
2019-04-26T11:15:53.258Z,1.30
2019-04-26T11:18:27.592Z,1.00
2019-04-26T11:20:55.959Z,0.97
2019-04-26T11:23:26.475Z,1.00
2019-04-26T11:25:57.891Z,0.85
2019-04-26T11:28:28.975Z,1.12
2019-04-26T11:30:59.509Z,1.20
2019-04-26T11:33:30.035Z,1.25
2019-04-26T11:36:03.331Z,1.10
2019-04-26T11:38:32.928Z,0.82
2019-04-26T11:41:06.226Z,0.60
2019-04-26T11:43:35.635Z,0.40
2019-04-26T11:46:06.166Z,0.60
2019-04-26T11:48:36.589Z,0.88
2019-04-26T11:51:07.022Z,0.80
2019-04-26T11:53:40.444Z,0.80
2019-04-26T11:56:09.557Z,1.10
2019-04-26T11:58:40.106Z,1.50
2019-04-26T12:01:12.213Z,1.17
2019-04-26T12:03:48.433Z,1.90
2019-04-26T12:06:36.922Z,0.93
2019-04-26T12:09:19.627Z,1.27
2019-04-26T12:12:03.710Z,1.40
2019-04-26T12:14:22.131Z,1.50
2019-04-26T12:16:58.894Z,1.40
2019-04-26T12:19:25.646Z,1.90
2019-04-26T12:21:56.076Z,1.40
2019-04-26T12:24:29.989Z,1.70
2019-04-26T12:26:59.935Z,1.57
2019-04-26T12:29:30.739Z,1.60
2019-04-26T12:32:01.444Z,1.10
2019-04-26T12:34:31.998Z,1.37
2019-04-26T12:37:02.423Z,2.00
2019-04-26T12:39:36.760Z,1.73
2019-04-26T12:42:08.194Z,1.50
2019-04-26T12:44:46.917Z,1.33
2019-04-26T12:47:21.764Z,1.70
2019-04-26T12:49:54.582Z,1.07
2019-04-26T12:52:24.503Z,1.10
2019-04-26T12:54:57.575Z,1.40
2019-04-26T12:57:27.110Z,1.60
2019-04-26T13:00:01.820Z,1.70
2019-04-26T13:02:29.961Z,1.27
2019-04-26T13:05:00.365Z,1.07
2019-04-26T13:07:31.004Z,1.73
2019-04-26T13:10:36.794Z,1.70
2019-04-26T13:13:18.199Z,1.80
2019-04-26T13:16:08.120Z,1.10
2019-04-26T13:18:41.118Z,1.57
2019-04-26T13:21:10.716Z,1.23
2019-04-26T13:23:41.146Z,1.00
2019-04-26T13:26:11.569Z,1.03
2019-04-26T13:28:42.165Z,1.43
2019-04-26T13:31:12.635Z,1.10
2019-04-26T13:33:42.911Z,0.97
2019-04-26T13:36:13.482Z,1.50
2019-04-26T13:38:45.188Z,1.07
2019-04-26T13:41:15.788Z,1.50
2019-04-26T13:43:46.199Z,1.30
2019-04-26T13:46:41.815Z,0.97
2019-04-26T13:49:30.061Z,1.20
2019-04-26T13:52:00.539Z,1.00
2019-04-26T13:54:31.123Z,1.03
2019-04-26T13:57:01.596Z,1.60
2019-04-26T13:59:32.821Z,1.20
2019-04-26T14:02:11.460Z,1.30
2019-04-26T14:04:37.252Z,1.20
2019-04-26T14:07:07.770Z,1.10
2019-04-26T14:09:39.516Z,1.57
2019-04-26T14:12:18.393Z,0.90
2019-04-26T14:14:41.880Z,1.30
2019-04-26T14:17:12.539Z,1.33
2019-04-26T14:19:45.301Z,1.40
2019-04-26T14:22:17.081Z,1.37
2019-04-26T14:25:11.256Z,1.30
2019-04-26T14:27:51.200Z,2.30
2019-04-26T14:30:22.348Z,1.83
2019-04-26T14:32:53.247Z,1.80
2019-04-26T14:35:24.853Z,1.40
2019-04-26T14:38:27.110Z,1.50
2019-04-26T14:40:47.448Z,1.97
2019-04-26T14:43:18.412Z,1.60
2019-04-26T14:45:55.974Z,1.87
2019-04-26T14:48:35.119Z,1.80
2019-04-26T14:51:07.226Z,1.80
2019-04-26T14:53:26.613Z,1.93
2019-04-26T14:55:57.122Z,2.27
2019-04-26T14:58:30.089Z,2.30
2019-04-26T15:01:03.141Z,2.33
2019-04-26T15:03:38.470Z,2.17
2019-04-26T15:06:33.670Z,2.50
2019-04-26T15:09:16.829Z,2.83
2019-04-26T15:11:37.164Z,2.00
2019-04-26T15:14:07.611Z,2.60
2019-04-26T15:16:41.489Z,2.63
2019-04-26T15:19:12.594Z,2.80
2019-04-26T15:21:42.372Z,3.13
2019-04-26T15:24:12.908Z,2.93
2019-04-26T15:26:43.329Z,2.30
2019-04-26T15:29:14.781Z,2.80
2019-04-26T15:31:45.256Z,2.70
2019-04-26T15:34:19.267Z,3.43
2019-04-26T15:36:49.256Z,3.40
2019-04-26T15:39:30.067Z,2.50
2019-04-26T15:42:18.556Z,2.80
2019-04-26T15:45:03.510Z,2.80
2019-04-26T15:48:05.389Z,2.60
2019-04-26T15:50:50.238Z,2.67
2019-04-26T15:53:14.770Z,2.20
2019-04-26T15:55:45.463Z,2.30
2019-04-26T15:58:15.905Z,2.50
2019-04-26T16:00:46.638Z,2.27
2019-04-26T16:03:17.111Z,2.03
2019-04-26T16:05:47.594Z,2.13
2019-04-26T16:08:18.024Z,1.97
2019-04-26T16:10:49.679Z,2.03
2019-04-26T16:13:24.120Z,1.90
2019-04-26T16:15:54.729Z,2.07
2019-04-26T16:18:25.157Z,1.60
2019-04-26T16:20:56.912Z,1.27
2019-04-26T16:23:38.358Z,1.80
2019-04-26T16:25:59.616Z,2.10
2019-04-26T16:28:48.943Z,1.70
2019-04-26T16:31:47.672Z,2.17
2019-04-26T16:34:19.181Z,1.70
2019-04-26T16:36:49.642Z,1.40
2019-04-26T16:39:20.083Z,1.60
2019-04-26T16:41:51.882Z,1.37
2019-04-26T16:44:29.376Z,2.13
2019-04-26T16:47:01.427Z,1.27
2019-04-26T16:49:28.434Z,1.40
2019-04-26T16:52:03.095Z,1.70
2019-04-26T16:54:30.935Z,1.80
2019-04-26T16:57:06.803Z,1.57
2019-04-26T16:59:34.452Z,1.70
2019-04-26T17:02:05.176Z,1.30
2019-04-26T17:04:36.399Z,1.77
2019-04-26T17:07:06.965Z,2.30
2019-04-26T17:09:55.765Z,1.53
2019-04-26T17:12:10.460Z,1.57
2019-04-26T17:14:47.675Z,2.10
2019-04-26T17:17:14.222Z,1.60
2019-04-26T17:19:44.735Z,1.60
2019-04-26T17:22:55.802Z,1.57
2019-04-26T17:25:38.424Z,1.87
2019-04-26T17:28:08.849Z,1.87
2019-04-26T17:30:42.495Z,1.90
2019-04-26T17:33:13.022Z,2.10
2019-04-26T17:35:44.029Z,2.10
2019-04-26T17:38:14.449Z,2.03
2019-04-26T17:41:06.443Z,2.33
2019-04-26T17:43:42.210Z,1.93
2019-04-26T17:46:14.625Z,1.70
2019-04-26T17:48:49.146Z,1.90
2019-04-26T17:51:19.178Z,1.70
2019-04-26T17:53:58.813Z,2.17
2019-04-26T17:56:26.118Z,2.30
2019-04-26T17:59:09.119Z,2.20
2019-04-26T18:01:45.366Z,1.87
2019-04-26T18:04:11.967Z,1.90
2019-04-26T18:06:47.370Z,2.20
2019-04-26T18:09:38.172Z,2.53
2019-04-26T18:11:46.945Z,2.83
2019-04-26T18:14:21.650Z,1.57
2019-04-26T18:16:57.134Z,1.70
2019-04-26T18:19:47.766Z,1.80
2019-04-26T18:22:40.355Z,1.90
2019-04-26T18:25:12.648Z,1.70
2019-04-26T18:27:43.511Z,2.53
2019-04-26T18:30:14.609Z,1.70
2019-04-26T18:32:47.756Z,2.10
2019-04-26T18:35:17.407Z,2.13
2019-04-26T18:37:47.891Z,2.17
2019-04-26T18:40:20.565Z,2.53
2019-04-26T18:42:50.618Z,2.87
2019-04-26T18:45:25.577Z,2.43
2019-04-26T18:47:54.801Z,2.93
2019-04-26T18:50:46.030Z,2.27
2019-04-26T18:53:36.627Z,2.93
2019-04-26T18:56:06.595Z,2.93
2019-04-26T18:58:38.025Z,2.20
2019-04-26T19:01:10.521Z,2.23
2019-04-26T19:03:41.048Z,2.77
2019-04-26T19:06:11.474Z,2.57
2019-04-26T19:08:47.674Z,2.33
2019-04-26T19:11:14.283Z,2.10
2019-04-26T19:14:15.769Z,2.47
2019-04-26T19:17:11.960Z,2.37
2019-04-26T19:20:01.984Z,2.23
2019-04-26T19:22:34.518Z,2.70
2019-04-26T19:25:05.033Z,2.30
2019-04-26T19:27:47.120Z,2.13
2019-04-26T19:30:10.603Z,2.27
2019-04-26T19:32:41.155Z,3.30
2019-04-26T19:35:14.303Z,2.20
2019-04-26T19:37:43.640Z,2.70
2019-04-26T19:40:14.645Z,2.17
2019-04-26T19:42:45.119Z,2.30
2019-04-26T19:45:47.013Z,2.30
2019-04-26T19:48:23.625Z,2.10
2019-04-26T19:51:03.293Z,2.00
2019-04-26T19:53:51.748Z,2.20
2019-04-26T19:56:28.621Z,2.10
2019-04-26T19:58:59.058Z,1.60
2019-04-26T20:01:29.676Z,2.17
2019-04-26T20:04:00.309Z,1.73
2019-04-26T20:06:32.255Z,1.77
2019-04-26T20:09:02.907Z,1.50
2019-04-26T20:11:36.198Z,1.40
2019-04-26T20:14:06.790Z,1.50
2019-04-26T20:16:40.776Z,1.70
2019-04-26T20:19:14.930Z,1.83
2019-04-26T20:21:45.515Z,1.37
2019-04-26T20:24:18.401Z,1.47
2019-04-26T20:26:48.650Z,1.17
2019-04-26T20:29:19.336Z,1.60
2019-04-26T20:32:21.131Z,1.30
2019-04-26T20:35:07.182Z,1.23
2019-04-26T20:37:37.715Z,1.50
2019-04-26T20:40:17.965Z,1.20
2019-04-26T20:42:42.244Z,1.30
2019-04-26T20:45:16.624Z,1.50
2019-04-26T20:47:46.670Z,1.43
2019-04-26T20:50:17.834Z,1.20
2019-04-26T20:52:48.258Z,1.20
2019-04-26T20:55:22.705Z,1.30
2019-04-26T20:57:51.969Z,1.50
2019-04-26T21:00:24.557Z,1.00
2019-04-26T21:03:01.496Z,1.13
2019-04-26T21:05:27.150Z,1.10
2019-04-26T21:07:57.579Z,1.40
2019-04-26T21:10:28.234Z,1.07
2019-04-26T21:12:58.796Z,1.00
2019-04-26T21:15:29.435Z,1.17
2019-04-26T21:18:02.668Z,0.70
2019-04-26T21:20:36.091Z,1.17
2019-04-26T21:23:04.142Z,1.17
2019-04-26T21:26:16.195Z,0.93
2019-04-26T21:29:03.314Z,0.80
2019-04-26T21:31:59.423Z,0.80
2019-04-26T21:34:34.695Z,1.00
2019-04-26T21:37:27.582Z,1.00
2019-04-26T21:40:03.950Z,0.93
2019-04-26T21:42:34.476Z,0.80
2019-04-26T21:45:06.951Z,0.90
2019-04-26T21:47:37.560Z,0.67
2019-04-26T21:50:08.416Z,0.83
2019-04-26T21:52:38.845Z,0.70
2019-04-26T21:55:09.578Z,0.70
2019-04-26T21:57:40.011Z,0.80
2019-04-26T22:00:34.466Z,0.63
2019-04-26T22:03:07.928Z,0.60
2019-04-26T22:05:37.195Z,0.60
2019-04-26T22:08:07.724Z,1.10
2019-04-26T22:10:43.720Z,0.80
2019-04-26T22:13:23.051Z,0.97
2019-04-26T22:16:09.469Z,1.03
2019-04-26T22:18:56.563Z,0.83
2019-04-26T22:21:32.083Z,2.43
2019-04-26T22:24:09.577Z,3.10
2019-04-26T22:26:44.365Z,3.30
2019-04-26T22:29:16.557Z,3.90
2019-04-26T22:31:44.439Z,3.83
2019-04-26T22:34:15.994Z,3.90
2019-04-26T22:36:46.440Z,4.40
2019-04-26T22:39:20.218Z,4.97
2019-04-26T22:41:50.658Z,4.67
2019-04-26T22:44:34.386Z,4.20
2019-04-26T22:47:33.942Z,4.73
2019-04-26T22:50:04.026Z,5.50
2019-04-26T22:52:34.449Z,4.50
2019-04-26T22:55:06.050Z,4.03
2019-04-26T22:57:36.532Z,4.67
2019-04-26T23:00:08.905Z,4.57
2019-04-26T23:02:39.333Z,5.40
2019-04-26T23:05:09.761Z,6.17
2019-04-26T23:07:40.391Z,5.30
2019-04-26T23:10:13.034Z,5.30
2019-04-26T23:13:13.246Z,6.23
2019-04-26T23:16:14.956Z,5.00
2019-04-26T23:19:03.739Z,4.67
2019-04-26T23:21:37.724Z,5.37
2019-04-26T23:24:11.528Z,5.57
2019-04-26T23:26:41.633Z,4.47
2019-04-26T23:29:17.536Z,4.83
2019-04-26T23:31:44.729Z,5.43
2019-04-26T23:34:15.192Z,5.40
2019-04-26T23:36:49.144Z,4.07
2019-04-26T23:39:17.871Z,4.37
2019-04-26T23:41:47.392Z,5.17
2019-04-26T23:44:16.856Z,4.90
2019-04-26T23:46:47.362Z,4.77
2019-04-26T23:49:19.282Z,4.77
2019-04-26T23:51:50.011Z,5.30
2019-04-26T23:54:20.436Z,5.47
2019-04-26T23:56:55.724Z,4.53
2019-04-26T23:59:24.776Z,4.90
